Time;durP1;ratioP1;P1;durP2;ratioP2;P2;SDS_P1;SDS_P2;PMS_P1;PMS_P2;Temp;Humidity;BMP_temperature;BMP_pressure;BME280_temperature;BME280_humidity;BME280_pressure;Samples;Min_cycle;Max_cycle;Signal;HPM_P1;HPM_P2
2022/05/18 00:00:29;;;;;;;30.77;20.65;;;;;;;;;;5064061;28;20035;-72
2022/05/18 00:02:56;;;;;;;31.15;20.35;;;;;;;;;;5086058;28;20024;-73
2022/05/18 00:05:22;;;;;;;33.28;21.23;;;;;;;;;;5088109;28;20058;-72
2022/05/18 00:07:49;;;;;;;40.90;23.00;;;;;;;;;;5083557;28;20036;-72
2022/05/18 00:10:15;;;;;;;32.85;21.95;;;;;;;;;;5088819;28;20048;-73
2022/05/18 00:12:45;;;;;;;40.15;23.65;;;;;;;;;;5086643;28;20053;-71
2022/05/18 00:15:12;;;;;;;40.38;23.55;;;;;;;;;;5086551;28;20032;-72
2022/05/18 00:17:38;;;;;;;38.47;22.73;;;;;;;;;;5080926;28;20127;-70
2022/05/18 00:20:04;;;;;;;41.63;23.23;;;;;;;;;;5085352;28;20570;-71
2022/05/18 00:22:30;;;;;;;37.88;23.45;;;;;;;;;;5087092;28;20028;-72
2022/05/18 00:24:56;;;;;;;35.53;24.90;;;;;;;;;;5086604;28;20055;-72
2022/05/18 00:27:22;;;;;;;42.15;24.88;;;;;;;;;;5081175;28;20024;-72
2022/05/18 00:29:48;;;;;;;38.03;24.20;;;;;;;;;;5081640;28;20028;-72
2022/05/18 00:32:14;;;;;;;35.30;23.95;;;;;;;;;;5091060;28;20043;-73
2022/05/18 00:34:41;;;;;;;41.85;25.05;;;;;;;;;;5085923;28;20047;-72
2022/05/18 00:37:07;;;;;;;42.00;27.08;;;;;;;;;;5082619;28;20029;-73
2022/05/18 00:39:33;;;;;;;38.45;26.13;;;;;;;;;;5080906;28;20537;-72
2022/05/18 00:41:59;;;;;;;42.22;25.38;;;;;;;;;;5079327;28;20165;-71
2022/05/18 00:44:25;;;;;;;47.47;28.23;;;;;;;;;;5082536;28;20028;-71
2022/05/18 00:46:51;;;;;;;45.08;26.60;;;;;;;;;;5086673;28;20399;-71
2022/05/18 00:49:17;;;;;;;38.28;25.30;;;;;;;;;;5080781;28;20047;-71
2022/05/18 00:51:47;;;;;;;38.78;25.30;;;;;;;;;;5085869;28;20035;-71
2022/05/18 00:54:34;;;;;;;40.87;25.87;;;;;;;;;;5084671;28;20035;-71
2022/05/18 00:57:02;;;;;;;43.65;27.25;;;;;;;;;;5088048;28;20297;-71
2022/05/18 00:59:30;;;;;;;39.53;26.65;;;;;;;;;;5077558;28;20024;-72
2022/05/18 01:01:57;;;;;;;37.78;26.25;;;;;;;;;;5085100;28;20047;-71
2022/05/18 01:04:24;;;;;;;46.78;28.35;;;;;;;;;;5081939;28;20043;-71
2022/05/18 01:07:02;;;;;;;48.08;30.70;;;;;;;;;;5083202;28;20125;-70
2022/05/18 01:09:30;;;;;;;49.47;31.88;;;;;;;;;;5084343;28;20128;-72
2022/05/18 01:11:57;;;;;;;50.58;30.67;;;;;;;;;;5085454;28;20053;-72
2022/05/18 01:14:29;;;;;;;50.83;30.80;;;;;;;;;;5081390;28;20481;-71
2022/05/18 01:16:55;;;;;;;54.47;34.47;;;;;;;;;;5080338;28;20036;-71
2022/05/18 01:19:31;;;;;;;65.93;36.55;;;;;;;;;;5079971;28;20103;-71
2022/05/18 01:22:04;;;;;;;56.85;36.15;;;;;;;;;;5083100;28;20075;-71
2022/05/18 01:24:37;;;;;;;54.15;36.15;;;;;;;;;;5082317;28;20060;-71
2022/05/18 01:27:03;;;;;;;57.42;35.05;;;;;;;;;;5083491;28;20504;-72
2022/05/18 01:29:30;;;;;;;61.80;36.53;;;;;;;;;;5081725;28;20031;-72
2022/05/18 01:31:57;;;;;;;52.47;34.65;;;;;;;;;;5083053;28;20035;-71
2022/05/18 01:34:25;;;;;;;61.75;34.70;;;;;;;;;;5083380;28;20034;-72
2022/05/18 01:36:52;;;;;;;65.82;39.30;;;;;;;;;;5084673;28;20047;-72
2022/05/18 01:39:28;;;;;;;60.65;38.92;;;;;;;;;;5083909;28;20122;-70
2022/05/18 01:42:11;;;;;;;58.85;36.75;;;;;;;;;;5083297;28;20051;-72
2022/05/18 01:44:38;;;;;;;59.42;39.08;;;;;;;;;;5080881;28;20032;-72
2022/05/18 01:47:04;;;;;;;62.72;41.50;;;;;;;;;;5077766;28;20035;-72
2022/05/18 01:49:31;;;;;;;66.07;37.53;;;;;;;;;;5084519;28;20372;-72
2022/05/18 01:51:58;;;;;;;60.45;38.85;;;;;;;;;;5084144;28;20028;-72
2022/05/18 01:54:24;;;;;;;65.95;39.38;;;;;;;;;;5084251;28;20063;-72
2022/05/18 01:56:50;;;;;;;64.35;37.72;;;;;;;;;;5085502;28;20024;-72
2022/05/18 01:59:16;;;;;;;66.60;41.13;;;;;;;;;;5084535;28;20177;-73
2022/05/18 02:01:44;;;;;;;60.08;39.88;;;;;;;;;;5075453;28;20503;-72
2022/05/18 02:04:10;;;;;;;66.97;41.10;;;;;;;;;;5078940;28;20044;-72
2022/05/18 02:06:36;;;;;;;59.90;40.20;;;;;;;;;;5078707;28;20040;-72
2022/05/18 02:09:04;;;;;;;64.25;40.28;;;;;;;;;;5077079;28;20063;-71
2022/05/18 02:11:32;;;;;;;60.95;38.97;;;;;;;;;;5081814;28;20039;-71
2022/05/18 02:13:58;;;;;;;62.13;38.63;;;;;;;;;;5086324;28;20028;-72
2022/05/18 02:16:24;;;;;;;63.40;40.10;;;;;;;;;;5081717;28;20515;-72
2022/05/18 02:18:50;;;;;;;70.93;44.03;;;;;;;;;;5082835;28;20050;-72
2022/05/18 02:21:16;;;;;;;70.13;42.35;;;;;;;;;;5082520;28;20047;-72
2022/05/18 02:23:42;;;;;;;74.05;42.97;;;;;;;;;;5078472;28;20103;-72
2022/05/18 02:26:13;;;;;;;77.45;47.33;;;;;;;;;;5076833;28;20027;-71
2022/05/18 02:28:39;;;;;;;68.63;43.70;;;;;;;;;;5082909;28;20024;-71
2022/05/18 02:31:05;;;;;;;76.95;46.95;;;;;;;;;;5080774;28;20080;-71
2022/05/18 02:33:31;;;;;;;76.68;46.70;;;;;;;;;;5080434;28;20126;-72
2022/05/18 02:35:57;;;;;;;80.90;48.15;;;;;;;;;;5084016;28;20102;-72
2022/05/18 02:38:23;;;;;;;81.50;48.63;;;;;;;;;;5079327;28;20032;-71
2022/05/18 02:40:49;;;;;;;80.72;49.05;;;;;;;;;;5077106;28;20033;-71
2022/05/18 02:43:15;;;;;;;88.07;49.88;;;;;;;;;;5060485;28;20039;-71
2022/05/18 02:45:41;;;;;;;79.25;49.70;;;;;;;;;;5074400;28;20421;-72
2022/05/18 02:48:07;;;;;;;76.35;47.60;;;;;;;;;;5078531;28;20073;-71
2022/05/18 02:50:34;;;;;;;82.70;51.10;;;;;;;;;;5077028;28;20042;-71
2022/05/18 02:53:00;;;;;;;84.88;50.08;;;;;;;;;;5084536;28;20035;-71
2022/05/18 02:58:12;;;;;;;81.78;47.92;;;;;;;;;;5080182;28;20031;-72
2022/05/18 03:00:39;;;;;;;73.32;47.33;;;;;;;;;;5081717;28;20107;-72
2022/05/18 03:03:05;;;;;;;91.22;51.80;;;;;;;;;;5082635;28;20131;-71
2022/05/18 03:05:32;;;;;;;76.65;48.78;;;;;;;;;;5077853;28;20039;-71
2022/05/18 03:08:01;;;;;;;82.13;50.47;;;;;;;;;;5086544;28;20114;-71
2022/05/18 03:10:27;;;;;;;85.90;51.10;;;;;;;;;;5081128;28;20138;-71
2022/05/18 03:12:53;;;;;;;82.90;50.83;;;;;;;;;;5083418;28;20063;-72
2022/05/18 03:15:20;;;;;;;77.43;49.22;;;;;;;;;;5082782;28;20055;-71
2022/05/18 03:17:46;;;;;;;80.78;50.45;;;;;;;;;;5081077;28;20024;-71
2022/05/18 03:23:33;;;;;;;78.38;49.88;;;;;;;;;;5081675;28;20031;-71
2022/05/18 03:25:43;;;;;;;77.38;49.90;;;;;;;;;;5082399;28;20098;-71
2022/05/18 03:28:09;;;;;;;75.95;48.00;;;;;;;;;;5080588;28;20044;-72
2022/05/18 03:30:35;;;;;;;73.25;47.30;;;;;;;;;;5081050;28;20089;-72
2022/05/18 03:33:01;;;;;;;77.03;47.30;;;;;;;;;;5082811;28;20063;-71
2022/05/18 03:35:27;;;;;;;75.93;45.70;;;;;;;;;;5079526;28;20076;-72
2022/05/18 03:37:53;;;;;;;67.68;44.67;;;;;;;;;;5082517;28;20020;-72
2022/05/18 03:40:19;;;;;;;73.22;45.33;;;;;;;;;;5078164;28;20542;-71
2022/05/18 03:42:45;;;;;;;65.55;44.60;;;;;;;;;;5080998;28;20306;-71
2022/05/18 03:45:11;;;;;;;62.17;43.35;;;;;;;;;;5081315;28;20461;-71
2022/05/18 03:47:37;;;;;;;72.13;44.78;;;;;;;;;;5083474;28;20037;-71
2022/05/18 03:50:04;;;;;;;77.25;45.50;;;;;;;;;;5079625;28;20032;-71
2022/05/18 03:52:30;;;;;;;72.75;43.92;;;;;;;;;;5080007;28;20036;-71
2022/05/18 03:54:56;;;;;;;62.50;43.38;;;;;;;;;;5080460;28;20085;-71
2022/05/18 03:57:22;;;;;;;70.88;44.85;;;;;;;;;;5081025;28;20512;-71
2022/05/18 03:59:48;;;;;;;75.07;45.17;;;;;;;;;;5060737;28;20501;-71
2022/05/18 04:02:14;;;;;;;73.05;48.83;;;;;;;;;;5074917;28;20108;-71
2022/05/18 04:04:42;;;;;;;77.70;47.83;;;;;;;;;;5078296;28;20055;-71
2022/05/18 04:07:08;;;;;;;67.97;45.65;;;;;;;;;;5078679;28;20043;-71
2022/05/18 04:09:34;;;;;;;70.82;45.17;;;;;;;;;;5079034;28;20044;-71
2022/05/18 04:12:01;;;;;;;71.15;47.08;;;;;;;;;;5082026;28;20043;-71
2022/05/18 04:14:27;;;;;;;79.80;48.20;;;;;;;;;;5086508;28;20035;-70
2022/05/18 04:16:53;;;;;;;70.10;46.47;;;;;;;;;;5087201;28;20146;-72
2022/05/18 04:19:19;;;;;;;66.40;44.60;;;;;;;;;;5088980;28;20259;-72
2022/05/18 04:21:45;;;;;;;62.85;45.15;;;;;;;;;;5087068;28;20032;-71
2022/05/18 04:24:11;;;;;;;72.63;45.33;;;;;;;;;;5084614;28;20056;-70
2022/05/18 04:26:38;;;;;;;64.50;45.53;;;;;;;;;;5085512;28;20089;-71
2022/05/18 04:29:04;;;;;;;65.32;44.47;;;;;;;;;;5087352;28;20036;-71
2022/05/18 04:31:30;;;;;;;64.65;45.25;;;;;;;;;;5081925;28;20020;-71
2022/05/18 04:33:56;;;;;;;67.55;45.42;;;;;;;;;;5084761;28;20746;-70
2022/05/18 04:36:22;;;;;;;59.83;41.88;;;;;;;;;;5086598;28;20392;-70
2022/05/18 04:38:48;;;;;;;59.55;37.33;;;;;;;;;;5087701;28;20503;-71
2022/05/18 04:41:14;;;;;;;52.00;34.97;;;;;;;;;;5083871;28;20443;-72
2022/05/18 04:43:40;;;;;;;47.53;31.52;;;;;;;;;;5085757;28;20143;-72
2022/05/18 04:46:07;;;;;;;50.75;30.02;;;;;;;;;;5085180;28;20449;-72
2022/05/18 04:48:34;;;;;;;40.88;27.83;;;;;;;;;;5083049;28;20024;-72
2022/05/18 04:51:05;;;;;;;36.00;24.45;;;;;;;;;;5081033;28;20032;-72
2022/05/18 04:53:31;;;;;;;31.87;23.97;;;;;;;;;;5083412;28;20035;-71
2022/05/18 04:55:57;;;;;;;33.53;23.23;;;;;;;;;;5079981;28;21466;-71
2022/05/18 04:58:23;;;;;;;33.55;23.05;;;;;;;;;;5083182;28;20819;-72
2022/05/18 05:00:57;;;;;;;35.30;22.55;;;;;;;;;;5079386;28;20124;-73
2022/05/18 05:03:23;;;;;;;28.63;21.27;;;;;;;;;;5081885;28;20038;-72
2022/05/18 05:05:49;;;;;;;34.47;20.88;;;;;;;;;;5084103;28;20043;-73
2022/05/18 05:08:15;;;;;;;32.67;22.27;;;;;;;;;;5084254;28;20046;-73
2022/05/18 05:10:41;;;;;;;26.73;21.50;;;;;;;;;;5083051;28;20142;-73
2022/05/18 05:13:08;;;;;;;34.30;22.92;;;;;;;;;;5076279;28;20033;-73
2022/05/18 05:15:34;;;;;;;37.42;25.83;;;;;;;;;;5078369;28;20040;-72
2022/05/18 05:18:00;;;;;;;37.20;25.08;;;;;;;;;;5081618;28;20442;-74
2022/05/18 05:20:26;;;;;;;38.25;24.35;;;;;;;;;;5083063;28;20062;-74
2022/05/18 05:22:52;;;;;;;36.13;22.70;;;;;;;;;;5086702;28;20493;-73
2022/05/18 05:25:18;;;;;;;32.15;22.55;;;;;;;;;;5082879;28;20040;-73
2022/05/18 05:27:45;;;;;;;32.50;24.00;;;;;;;;;;5082439;28;20032;-73
2022/05/18 05:30:12;;;;;;;31.88;23.27;;;;;;;;;;5084021;28;20039;-72
2022/05/18 05:32:38;;;;;;;33.97;25.10;;;;;;;;;;5086645;28;20040;-73
2022/05/18 05:35:05;;;;;;;39.35;25.77;;;;;;;;;;5081854;28;20028;-73
2022/05/18 05:37:31;;;;;;;36.42;25.98;;;;;;;;;;5078074;28;20150;-73
2022/05/18 05:39:57;;;;;;;35.35;26.27;;;;;;;;;;5082197;28;20038;-73
2022/05/18 05:42:24;;;;;;;36.08;26.70;;;;;;;;;;5087136;28;20107;-72
2022/05/18 05:44:51;;;;;;;42.92;26.90;;;;;;;;;;5080530;28;20354;-73
2022/05/18 05:47:17;;;;;;;36.25;23.33;;;;;;;;;;5082567;28;20047;-73
2022/05/18 05:49:44;;;;;;;33.70;24.48;;;;;;;;;;5082866;28;20035;-72
2022/05/18 05:52:11;;;;;;;34.45;24.77;;;;;;;;;;5081002;28;20024;-74
2022/05/18 05:54:37;;;;;;;31.85;22.95;;;;;;;;;;5084768;28;20036;-73
2022/05/18 05:57:04;;;;;;;38.25;25.17;;;;;;;;;;5083560;28;20051;-73
2022/05/18 05:59:35;;;;;;;34.20;22.95;;;;;;;;;;5087514;28;20019;-73
2022/05/18 06:02:02;;;;;;;35.08;23.02;;;;;;;;;;5084644;28;20024;-73
2022/05/18 06:04:32;;;;;;;48.47;25.25;;;;;;;;;;5083003;28;20024;-73
2022/05/18 06:06:59;;;;;;;43.35;25.63;;;;;;;;;;5083056;28;20164;-73
2022/05/18 06:09:26;;;;;;;35.03;24.83;;;;;;;;;;5074189;28;20473;-77
2022/05/18 06:11:52;;;;;;;43.33;23.80;;;;;;;;;;5078436;28;20516;-77
2022/05/18 06:14:18;;;;;;;41.22;23.70;;;;;;;;;;5082623;28;20501;-77
2022/05/18 06:16:46;;;;;;;35.65;23.75;;;;;;;;;;5083750;28;20486;-76
2022/05/18 06:19:13;;;;;;;34.25;24.33;;;;;;;;;;5097634;28;20107;-77
2022/05/18 06:21:39;;;;;;;37.50;25.55;;;;;;;;;;5084362;28;20024;-77
2022/05/18 06:24:05;;;;;;;37.63;23.75;;;;;;;;;;5086524;28;20386;-77
2022/05/18 06:26:31;;;;;;;45.35;26.85;;;;;;;;;;5087111;28;20085;-77
2022/05/18 06:28:57;;;;;;;35.08;24.50;;;;;;;;;;5086934;28;20402;-79
2022/05/18 06:31:23;;;;;;;35.17;23.65;;;;;;;;;;5088590;28;20081;-77
2022/05/18 06:33:50;;;;;;;29.33;21.98;;;;;;;;;;5084378;28;20078;-76
2022/05/18 06:36:16;;;;;;;34.67;23.30;;;;;;;;;;5080319;28;20043;-78
2022/05/18 06:38:42;;;;;;;39.40;24.20;;;;;;;;;;5083560;28;20032;-76
2022/05/18 06:41:22;;;;;;;36.75;23.58;;;;;;;;;;5083942;28;20030;-77
2022/05/18 06:43:50;;;;;;;35.28;23.60;;;;;;;;;;5087109;28;20153;-77
2022/05/18 06:46:17;;;;;;;34.83;23.00;;;;;;;;;;5081411;28;20051;-79
2022/05/18 06:48:43;;;;;;;34.15;23.02;;;;;;;;;;5087025;28;20345;-77
2022/05/18 06:51:09;;;;;;;35.35;23.17;;;;;;;;;;5085110;28;20031;-78
2022/05/18 06:53:35;;;;;;;35.17;23.98;;;;;;;;;;5087976;28;20016;-77
2022/05/18 06:56:02;;;;;;;35.15;22.52;;;;;;;;;;5078740;28;20032;-77
2022/05/18 06:58:28;;;;;;;34.05;22.58;;;;;;;;;;5084233;28;20020;-76
2022/05/18 07:00:54;;;;;;;36.83;23.98;;;;;;;;;;5083724;28;20043;-77
2022/05/18 07:03:20;;;;;;;40.03;23.48;;;;;;;;;;5093093;28;20775;-76
2022/05/18 07:05:46;;;;;;;40.15;22.95;;;;;;;;;;5081092;28;20032;-75
2022/05/18 07:08:12;;;;;;;32.53;23.80;;;;;;;;;;5084364;28;20050;-75
2022/05/18 07:10:39;;;;;;;35.90;23.52;;;;;;;;;;5083910;28;20134;-76
2022/05/18 07:13:05;;;;;;;32.60;23.02;;;;;;;;;;5084452;28;20037;-77
2022/05/18 07:15:31;;;;;;;29.13;20.70;;;;;;;;;;5079388;28;20573;-75
2022/05/18 07:17:57;;;;;;;21.15;15.18;;;;;;;;;;5098075;28;20038;-76
2022/05/18 07:20:23;;;;;;;26.23;15.25;;;;;;;;;;5080485;28;20118;-76
2022/05/18 07:22:49;;;;;;;22.67;14.98;;;;;;;;;;5087575;28;20032;-76
2022/05/18 07:25:15;;;;;;;26.40;16.00;;;;;;;;;;5087395;28;20501;-76
2022/05/18 07:27:42;;;;;;;27.52;16.30;;;;;;;;;;5098698;28;20609;-76
2022/05/18 07:30:08;;;;;;;25.40;15.05;;;;;;;;;;5085731;28;20036;-75
2022/05/18 07:32:34;;;;;;;26.27;16.23;;;;;;;;;;5085559;28;20039;-80
2022/05/18 07:35:00;;;;;;;23.50;14.70;;;;;;;;;;5084219;28;20124;-78
2022/05/18 07:37:27;;;;;;;21.13;13.18;;;;;;;;;;5090417;28;20032;-77
2022/05/18 07:39:53;;;;;;;23.83;14.05;;;;;;;;;;5074754;28;20139;-77
2022/05/18 07:42:19;;;;;;;21.73;14.07;;;;;;;;;;5086648;28;20177;-77
2022/05/18 07:44:45;;;;;;;24.08;13.30;;;;;;;;;;5076257;28;20435;-77
2022/05/18 07:47:11;;;;;;;23.00;13.10;;;;;;;;;;5077516;28;20493;-77
2022/05/18 07:49:39;;;;;;;22.02;12.95;;;;;;;;;;5095880;28;20521;-76
2022/05/18 07:52:05;;;;;;;17.10;12.27;;;;;;;;;;5093505;28;20058;-75
2022/05/18 07:54:36;;;;;;;17.45;11.95;;;;;;;;;;5101259;28;20507;-76
2022/05/18 07:57:02;;;;;;;17.75;11.52;;;;;;;;;;5081647;28;20069;-77
2022/05/18 07:59:28;;;;;;;19.45;12.20;;;;;;;;;;5099593;28;20051;-74
2022/05/18 08:01:54;;;;;;;17.08;10.57;;;;;;;;;;5090747;28;20373;-75
2022/05/18 08:04:20;;;;;;;24.48;11.52;;;;;;;;;;5095536;28;20221;-75
2022/05/18 08:06:46;;;;;;;16.23;11.13;;;;;;;;;;5093678;28;20025;-75
2022/05/18 08:09:13;;;;;;;17.38;11.13;;;;;;;;;;5095896;28;20031;-76
2022/05/18 08:17:08;;;;;;;17.80;10.18;;;;;;;;;;5092021;28;20078;-76
2022/05/18 08:19:34;;;;;;;20.05;11.23;;;;;;;;;;5095094;28;20080;-77
2022/05/18 08:22:01;;;;;;;30.08;11.52;;;;;;;;;;5090809;28;20035;-76
2022/05/18 08:24:27;;;;;;;16.52;10.82;;;;;;;;;;5095843;28;20739;-77
2022/05/18 08:26:53;;;;;;;16.25;8.38;;;;;;;;;;5092972;28;20572;-77
2022/05/18 08:29:19;;;;;;;12.25;8.35;;;;;;;;;;5097801;28;20039;-76
2022/05/18 08:31:45;;;;;;;14.68;9.02;;;;;;;;;;5074222;28;20032;-76
2022/05/18 08:34:11;;;;;;;39.50;11.48;;;;;;;;;;5094709;28;20040;-76
2022/05/18 08:36:38;;;;;;;15.70;9.68;;;;;;;;;;5090299;28;20428;-75
2022/05/18 08:39:04;;;;;;;25.58;10.88;;;;;;;;;;5102016;28;20012;-76
2022/05/18 08:41:44;;;;;;;42.00;12.82;;;;;;;;;;5092742;28;20514;-77
2022/05/18 08:44:15;;;;;;;22.42;10.90;;;;;;;;;;5090360;28;20032;-75
2022/05/18 08:46:45;;;;;;;17.10;10.32;;;;;;;;;;5090355;28;20020;-77
2022/05/18 08:49:14;;;;;;;22.05;12.25;;;;;;;;;;5093925;28;20094;-77
2022/05/18 08:51:48;;;;;;;21.92;11.52;;;;;;;;;;5096012;28;20038;-77
2022/05/18 08:54:20;;;;;;;20.33;11.57;;;;;;;;;;5098330;28;20028;-77
2022/05/18 08:56:46;;;;;;;25.42;11.93;;;;;;;;;;5093742;28;20028;-77
2022/05/18 08:59:18;;;;;;;20.90;11.80;;;;;;;;;;5100075;28;20027;-76
2022/05/18 09:01:46;;;;;;;23.10;12.68;;;;;;;;;;5083210;28;20023;-76
2022/05/18 09:04:16;;;;;;;21.45;12.30;;;;;;;;;;5091541;28;20089;-76
2022/05/18 09:06:42;;;;;;;;;;;;;;;;;;5088433;28;20032;-76
2022/05/18 09:12:01;;;;;;;26.53;14.80;;;;;;;;;;5064702;28;20063;-77
2022/05/18 09:14:30;;;;;;;23.95;13.35;;;;;;;;;;5089697;28;20093;-76
2022/05/18 09:16:59;;;;;;;20.08;12.43;;;;;;;;;;5094913;28;20166;-76
2022/05/18 09:19:28;;;;;;;23.47;12.87;;;;;;;;;;5100026;28;20051;-77
2022/05/18 09:22:18;;;;;;;25.08;13.38;;;;;;;;;;5092771;28;20716;-76
2022/05/18 09:25:00;;;;;;;24.30;14.48;;;;;;;;;;5063506;28;20519;-76
2022/05/18 09:27:26;;;;;;;30.30;16.15;;;;;;;;;;5100755;28;20028;-76
2022/05/18 09:30:03;;;;;;;25.55;14.57;;;;;;;;;;5096986;28;20046;-76
2022/05/18 09:32:34;;;;;;;21.88;14.65;;;;;;;;;;5099714;28;20027;-76
2022/05/18 09:35:12;;;;;;;41.45;16.65;;;;;;;;;;5085622;28;20032;-76
2022/05/18 09:37:40;;;;;;;25.80;15.30;;;;;;;;;;5093723;28;20147;-76
2022/05/18 09:40:26;;;;;;;23.88;14.98;;;;;;;;;;5086652;28;20082;-76
2022/05/18 09:42:55;;;;;;;29.25;14.80;;;;;;;;;;5099074;28;20063;-77
2022/05/18 09:45:25;;;;;;;26.35;15.18;;;;;;;;;;5089802;28;20055;-76
2022/05/18 09:48:07;;;;;;;21.58;14.85;;;;;;;;;;5092273;28;20040;-77
2022/05/18 09:50:36;;;;;;;22.63;14.30;;;;;;;;;;5083395;28;20036;-78
2022/05/18 09:53:02;;;;;;;23.70;14.07;;;;;;;;;;5088726;28;20043;-75
2022/05/18 09:55:28;;;;;;;22.73;14.13;;;;;;;;;;5098924;28;20036;-77
2022/05/18 09:58:03;;;;;;;25.13;14.95;;;;;;;;;;5092089;28;20196;-77
2022/05/18 10:00:32;;;;;;;26.45;16.17;;;;;;;;;;5095970;28;20008;-76
2022/05/18 10:08:56;;;;;;;30.42;15.93;;;;;;;;;;5091779;28;20043;-75
2022/05/18 10:11:34;;;;;;;24.92;16.15;;;;;;;;;;5088213;28;20397;-77
2022/05/18 10:14:08;;;;;;;29.17;16.27;;;;;;;;;;5091970;28;20058;-76
2022/05/18 10:16:39;;;;;;;28.95;16.05;;;;;;;;;;5093429;28;20017;-76
2022/05/18 10:19:07;;;;;;;25.75;15.25;;;;;;;;;;5087301;28;20073;-77
2022/05/18 10:21:34;;;;;;;23.77;14.27;;;;;;;;;;5078831;28;20035;-77
2022/05/18 10:24:08;;;;;;;28.50;16.63;;;;;;;;;;5095678;28;20465;-75
2022/05/18 10:26:34;;;;;;;24.85;16.33;;;;;;;;;;5089918;28;20047;-76
2022/05/18 10:29:06;;;;;;;28.27;17.52;;;;;;;;;;5089419;28;20438;-76
2022/05/18 10:31:33;;;;;;;31.40;16.30;;;;;;;;;;5091182;28;20052;-76
2022/05/18 10:34:18;;;;;;;26.48;16.85;;;;;;;;;;5089749;28;20036;-75
2022/05/18 10:36:46;;;;;;;29.05;17.58;;;;;;;;;;5086324;28;20028;-75
2022/05/18 10:39:13;;;;;;;25.98;16.45;;;;;;;;;;5087348;28;20036;-75
2022/05/18 10:41:41;;;;;;;27.90;16.90;;;;;;;;;;5080356;28;20209;-78
2022/05/18 10:44:16;;;;;;;26.70;16.23;;;;;;;;;;5082193;28;20040;-77
2022/05/18 10:46:47;;;;;;;28.35;17.52;;;;;;;;;;5087321;28;20054;-75
2022/05/18 10:49:45;;;;;;;28.33;16.65;;;;;;;;;;5087281;28;20119;-75
2022/05/18 10:52:13;;;;;;;27.35;18.30;;;;;;;;;;5055788;28;20036;-77
2022/05/18 10:54:40;;;;;;;25.15;16.88;;;;;;;;;;5094189;28;20028;-76
2022/05/18 10:57:12;;;;;;;29.67;17.52;;;;;;;;;;5093916;28;20105;-76
2022/05/18 10:59:48;;;;;;;32.53;17.73;;;;;;;;;;5091494;28;20042;-75
2022/05/18 11:02:21;;;;;;;29.60;17.15;;;;;;;;;;5101576;28;20087;-75
2022/05/18 11:04:54;;;;;;;29.13;18.83;;;;;;;;;;5099447;28;20088;-73
2022/05/18 11:07:21;;;;;;;28.50;17.67;;;;;;;;;;5093687;28;20039;-76
2022/05/18 11:09:47;;;;;;;32.20;17.65;;;;;;;;;;5095274;28;20020;-75
2022/05/18 11:12:23;;;;;;;29.30;18.83;;;;;;;;;;5095898;28;20085;-77
2022/05/18 11:14:55;;;;;;;30.15;19.83;;;;;;;;;;5094495;28;20390;-76
2022/05/18 11:17:28;;;;;;;30.40;18.27;;;;;;;;;;5094328;28;20024;-76
2022/05/18 11:20:16;;;;;;;32.67;17.77;;;;;;;;;;5095443;28;20016;-76
2022/05/18 11:23:17;;;;;;;30.42;17.88;;;;;;;;;;5092323;28;20038;-76
2022/05/18 11:26:03;;;;;;;26.45;16.15;;;;;;;;;;5031426;28;20029;-74
2022/05/18 11:28:32;;;;;;;33.47;18.33;;;;;;;;;;5082228;28;20124;-75
2022/05/18 11:31:01;;;;;;;33.67;18.67;;;;;;;;;;5093043;28;20028;-75
2022/05/18 11:33:43;;;;;;;28.25;18.20;;;;;;;;;;5088311;28;20032;-75
2022/05/18 11:36:12;;;;;;;24.60;17.98;;;;;;;;;;5085254;28;20119;-76
2022/05/18 11:38:56;;;;;;;26.25;17.65;;;;;;;;;;5071521;28;20119;-76
2022/05/18 11:41:22;;;;;;;27.30;16.83;;;;;;;;;;5069830;28;20104;-76
2022/05/18 11:43:57;;;;;;;25.30;17.02;;;;;;;;;;5088790;28;20484;-75
2022/05/18 11:46:32;;;;;;;30.45;16.73;;;;;;;;;;5087594;28;20024;-75
2022/05/18 11:49:11;;;;;;;22.08;15.50;;;;;;;;;;5088488;28;20028;-76
2022/05/18 11:51:52;;;;;;;22.13;14.18;;;;;;;;;;5089363;28;20107;-75
2022/05/18 11:54:32;;;;;;;21.10;12.65;;;;;;;;;;5089372;28;20041;-77
2022/05/18 11:57:17;;;;;;;20.90;12.65;;;;;;;;;;5085930;28;20020;-76
2022/05/18 12:02:21;;;;;;;16.80;11.73;;;;;;;;;;5083263;28;20036;-76
2022/05/18 12:04:53;;;;;;;21.52;12.23;;;;;;;;;;5090433;28;20508;-75
2022/05/18 12:07:31;;;;;;;19.90;13.68;;;;;;;;;;5089859;28;20372;-75
2022/05/18 12:10:16;;;;;;;22.83;13.15;;;;;;;;;;5091170;28;20393;-75
2022/05/18 12:13:01;;;;;;;25.15;12.52;;;;;;;;;;5086995;28;20032;-75
2022/05/18 12:15:53;;;;;;;18.45;12.35;;;;;;;;;;5092317;28;20570;-76
2022/05/18 12:18:31;;;;;;;19.95;11.13;;;;;;;;;;5092060;28;20056;-76
2022/05/18 12:21:02;;;;;;;18.10;10.73;;;;;;;;;;5088458;28;20035;-75
2022/05/18 12:23:30;;;;;;;24.77;9.60;;;;;;;;;;5091055;28;20020;-76
2022/05/18 12:25:57;;;;;;;14.90;9.32;;;;;;;;;;5094318;28;20032;-75
2022/05/18 12:28:24;;;;;;;12.38;8.65;;;;;;;;;;5092297;28;20034;-76
2022/05/18 12:30:50;;;;;;;13.77;8.82;;;;;;;;;;5093714;28;20056;-76
2022/05/18 12:33:18;;;;;;;11.48;7.50;;;;;;;;;;5092518;28;20032;-75
2022/05/18 12:36:10;;;;;;;13.40;8.77;;;;;;;;;;5090594;28;20056;-74
2022/05/18 12:38:57;;;;;;;12.27;7.72;;;;;;;;;;5089491;28;20593;-74
2022/05/18 12:41:27;;;;;;;10.88;7.03;;;;;;;;;;5089833;28;20028;-74
2022/05/18 12:44:02;;;;;;;21.48;8.18;;;;;;;;;;5087074;28;20478;-75
2022/05/18 12:46:32;;;;;;;14.40;7.43;;;;;;;;;;5086536;28;20512;-75
2022/05/18 12:49:00;;;;;;;12.52;6.55;;;;;;;;;;5090410;28;20035;-74
2022/05/18 12:51:26;;;;;;;20.52;8.50;;;;;;;;;;5088112;28;20134;-76
2022/05/18 12:53:52;;;;;;;15.48;8.77;;;;;;;;;;5091796;28;20393;-77
2022/05/18 12:56:47;;;;;;;14.02;8.88;;;;;;;;;;5086919;28;20418;-76
2022/05/18 12:59:17;;;;;;;14.77;9.23;;;;;;;;;;5086920;28;20027;-77
2022/05/18 13:01:44;;;;;;;19.42;9.07;;;;;;;;;;5081891;28;20089;-76
2022/05/18 13:04:10;;;;;;;14.07;8.90;;;;;;;;;;5087640;28;20093;-76
2022/05/18 13:06:36;;;;;;;13.65;8.82;;;;;;;;;;5088382;28;20040;-75
2022/05/18 13:09:02;;;;;;;11.82;8.32;;;;;;;;;;5085713;28;20449;-72
2022/05/18 13:11:45;;;;;;;15.38;7.50;;;;;;;;;;5086022;28;20485;-76
2022/05/18 13:14:17;;;;;;;18.70;9.18;;;;;;;;;;5085643;28;20036;-76
2022/05/18 13:16:49;;;;;;;12.68;7.50;;;;;;;;;;5085577;28;20036;-75
2022/05/18 13:19:20;;;;;;;15.18;8.35;;;;;;;;;;5090398;28;20110;-74
2022/05/18 13:22:04;;;;;;;17.30;8.82;;;;;;;;;;5084462;28;20367;-74
2022/05/18 13:24:34;;;;;;;22.92;8.80;;;;;;;;;;5089172;28;20024;-74
2022/05/18 13:27:08;;;;;;;17.15;7.65;;;;;;;;;;5091358;28;20039;-75
2022/05/18 13:29:35;;;;;;;12.82;8.93;;;;;;;;;;5088435;28;20028;-75
2022/05/18 13:32:06;;;;;;;16.50;8.00;;;;;;;;;;5093221;28;20049;-75
2022/05/18 13:34:56;;;;;;;12.95;8.38;;;;;;;;;;5092959;28;20031;-77
2022/05/18 13:37:23;;;;;;;18.25;7.95;;;;;;;;;;5083923;28;20047;-74
2022/05/18 13:39:50;;;;;;;12.68;7.50;;;;;;;;;;5094375;28;20043;-78
2022/05/18 13:42:18;;;;;;;13.65;7.25;;;;;;;;;;5095300;28;20148;-75
2022/05/18 13:44:44;;;;;;;12.30;8.32;;;;;;;;;;5088143;28;20020;-74
2022/05/18 13:47:37;;;;;;;16.33;9.02;;;;;;;;;;5094106;28;20035;-76
2022/05/18 13:50:04;;;;;;;11.93;7.95;;;;;;;;;;5091329;28;20067;-75
2022/05/18 13:52:34;;;;;;;15.05;7.60;;;;;;;;;;5095996;28;20000;-75
2022/05/18 13:55:02;;;;;;;15.38;7.10;;;;;;;;;;5090883;28;20106;-76
2022/05/18 13:57:34;;;;;;;15.05;7.68;;;;;;;;;;5091778;28;20016;-74
2022/05/18 14:00:03;;;;;;;12.45;7.45;;;;;;;;;;5090496;28;20077;-75
2022/05/18 14:02:32;;;;;;;15.13;7.07;;;;;;;;;;5085220;28;20107;-75
2022/05/18 14:05:01;;;;;;;16.67;6.93;;;;;;;;;;5090726;28;20405;-75
2022/05/18 14:07:31;;;;;;;11.48;6.68;;;;;;;;;;5090187;28;20503;-75
2022/05/18 14:10:02;;;;;;;13.75;7.63;;;;;;;;;;5086579;28;20028;-74
2022/05/18 14:12:28;;;;;;;13.15;7.38;;;;;;;;;;5085477;28;20038;-76
2022/05/18 14:14:54;;;;;;;12.02;7.15;;;;;;;;;;5087480;28;20059;-75
2022/05/18 14:17:24;;;;;;;12.32;7.38;;;;;;;;;;5088395;28;20084;-76
2022/05/18 14:20:07;;;;;;;9.30;6.63;;;;;;;;;;5091228;28;20024;-75
2022/05/18 14:22:34;;;;;;;12.57;7.32;;;;;;;;;;5082957;28;20129;-78
2022/05/18 14:25:03;;;;;;;10.18;6.55;;;;;;;;;;5086194;28;20047;-75
2022/05/18 14:27:41;;;;;;;12.20;6.70;;;;;;;;;;5086225;28;20342;-77
2022/05/18 14:30:10;;;;;;;16.85;6.70;;;;;;;;;;5085379;28;20123;-75
2022/05/18 14:33:03;;;;;;;8.45;5.75;;;;;;;;;;5086108;28;20050;-75
2022/05/18 14:35:31;;;;;;;11.55;5.65;;;;;;;;;;5085089;28;20148;-77
2022/05/18 14:38:00;;;;;;;12.13;5.90;;;;;;;;;;5082877;28;20031;-75
2022/05/18 14:40:28;;;;;;;8.45;5.95;;;;;;;;;;5083576;28;20063;-75
2022/05/18 14:42:54;;;;;;;10.35;6.00;;;;;;;;;;5084135;28;20062;-75
2022/05/18 14:45:23;;;;;;;9.32;5.72;;;;;;;;;;5089370;28;20115;-72
2022/05/18 14:48:09;;;;;;;10.05;5.63;;;;;;;;;;5076740;28;20221;-75
2022/05/18 14:50:41;;;;;;;16.02;5.75;;;;;;;;;;5081252;28;20039;-76
2022/05/18 14:53:13;;;;;;;12.23;6.07;;;;;;;;;;5079135;28;20099;-74
2022/05/18 14:55:45;;;;;;;8.40;5.35;;;;;;;;;;5082637;28;20024;-76